Time;durP1;ratioP1;P1;durP2;ratioP2;P2;SDS_P1;SDS_P2;PMS_P1;PMS_P2;Temp;Humidity;BMP_temperature;BMP_pressure;BME280_temperature;BME280_humidity;BME280_pressure;Samples;Min_cycle;Max_cycle;Signal;HPM_P1;HPM_P2
2022/01/08 00:01:51;;;;;;;;;1.25;1.00;;;;;2.44;90.69;100875.97;5056190;28;11390;-71
2022/01/08 00:04:17;;;;;;;;;1.00;1.00;;;;;2.49;91.08;100880.09;5083433;28;11563;-72
2022/01/08 00:06:44;;;;;;;;;2.00;2.00;;;;;2.47;90.70;100883.72;5060917;28;11457;-73
2022/01/08 00:09:10;;;;;;;;;4.25;1.50;;;;;2.47;90.71;100890.91;5059455;28;11529;-73
2022/01/08 00:11:40;;;;;;;;;1.00;1.00;;;;;2.49;91.12;100886.28;5082234;28;11492;-72
2022/01/08 00:14:09;;;;;;;;;1.00;1.00;;;;;2.51;91.23;100887.00;5074375;28;11442;-73
2022/01/08 00:16:37;;;;;;;;;1.25;1.00;;;;;2.54;91.36;100886.72;5076169;28;11513;-72
2022/01/08 00:19:05;;;;;;;;;1.00;1.00;;;;;2.56;91.40;100889.25;5075462;28;11526;-73
2022/01/08 00:21:32;;;;;;;;;1.25;1.25;;;;;2.54;91.52;100900.09;5076307;28;11548;-73
2022/01/08 00:23:59;;;;;;;;;0.00;0.00;;;;;2.52;91.30;100893.19;5074454;28;11435;-73
2022/01/08 00:26:25;;;;;;;;;2.00;0.50;;;;;2.58;91.41;100897.97;5076190;28;11513;-73
2022/01/08 00:28:52;;;;;;;;;1.75;1.00;;;;;2.55;91.08;100909.78;5077144;28;11558;-72
2022/01/08 00:31:18;;;;;;;;;0.50;0.00;;;;;2.60;91.11;100910.22;5074811;28;11527;-73
2022/01/08 00:33:47;;;;;;;;;0.25;0.25;;;;;2.67;91.32;100911.34;5077815;28;11431;-73
2022/01/08 00:36:13;;;;;;;;;1.00;1.00;;;;;2.71;91.11;100920.78;5078659;28;11572;-74
2022/01/08 00:38:40;;;;;;;;;1.00;1.00;;;;;2.78;90.61;100924.63;5073513;28;11420;-73
2022/01/08 00:41:06;;;;;;;;;2.25;1.75;;;;;2.81;90.58;100922.66;5078249;28;11520;-70
2022/01/08 00:43:33;;;;;;;;;5.25;2.00;;;;;2.80;90.32;100921.81;5077402;28;11490;-70
2022/01/08 00:46:00;;;;;;;;;4.25;4.25;;;;;2.76;90.40;100918.56;5076367;28;11467;-70
2022/01/08 00:48:26;;;;;;;;;1.50;1.50;;;;;2.80;91.02;100918.31;5076132;28;11457;-71
2022/01/08 00:50:53;;;;;;;;;1.75;0.25;;;;;2.77;90.63;100922.09;5075365;28;11395;-70
2022/01/08 00:53:23;;;;;;;;;2.00;2.00;;;;;2.79;91.21;100920.13;5075896;28;11395;-70
2022/01/08 00:55:50;;;;;;;;;2.50;2.50;;;;;2.78;91.11;100923.78;5075455;28;11489;-69
2022/01/08 00:58:16;;;;;;;;;4.25;2.00;;;;;2.76;91.15;100915.91;5077346;28;11584;-69
2022/01/08 01:00:43;;;;;;;;;2.00;2.00;;;;;2.81;91.50;100909.28;5078795;28;11407;-70
2022/01/08 01:03:09;;;;;;;;;5.25;3.00;;;;;2.87;90.94;100917.59;5078054;28;11445;-70
2022/01/08 01:05:36;;;;;;;;;4.00;1.75;;;;;3.00;90.64;100904.00;5077934;28;12155;-70
2022/01/08 01:08:02;;;;;;;;;1.00;1.00;;;;;2.97;89.59;100921.13;5072132;28;11442;-69
2022/01/08 01:10:29;;;;;;;;;2.00;1.00;;;;;2.99;89.64;100916.50;5078419;28;11412;-70
2022/01/08 01:12:55;;;;;;;;;2.00;2.00;;;;;3.00;90.01;100895.97;5074568;28;11414;-69
2022/01/08 01:15:22;;;;;;;;;2.00;2.00;;;;;3.03;90.11;100891.19;5059575;28;12163;-70
2022/01/08 01:17:48;;;;;;;;;1.00;1.00;;;;;2.98;90.00;100893.44;5076724;28;11515;-70
2022/01/08 01:20:17;;;;;;;;;2.00;1.00;;;;;3.01;90.51;100894.97;5078891;28;11408;-70
2022/01/08 01:25:14;;;;;;;;;1.25;1.25;;;;;2.91;90.84;100889.59;5079015;28;12269;-71
2022/01/08 01:30:28;;;;;;;;;0.00;0.00;;;;;2.84;91.01;100898.31;5076525;28;11385;-70
2022/01/08 01:41:23;;;;;;;;;1.00;0.50;;;;;2.76;90.94;100899.03;5076207;28;11443;-71
2022/01/08 01:49:18;;;;;;;;;2.25;2.25;;;;;2.73;90.62;100926.88;5076014;28;11426;-72
2022/01/08 01:51:45;;;;;;;;;1.50;1.50;;;;;2.66;92.31;100908.81;5076899;28;11441;-70
2022/01/08 01:54:13;;;;;;;;;2.50;0.75;;;;;2.80;91.66;100900.44;5075032;28;11389;-71
2022/01/08 01:56:40;;;;;;;;;0.00;0.00;;;;;2.91;91.60;100896.78;5058926;28;11540;-69
2022/01/08 01:59:06;;;;;;;;;0.25;0.00;;;;;3.04;92.09;100894.69;5076401;28;11526;-69
2022/01/08 02:01:33;;;;;;;;;0.25;0.25;;;;;3.05;92.14;100891.03;5075150;28;11405;-70
2022/01/08 02:03:59;;;;;;;;;0.25;0.00;;;;;3.00;93.13;100904.84;5076598;28;11404;-70
2022/01/08 02:06:26;;;;;;;;;0.50;0.50;;;;;3.00;93.50;100904.84;5075442;28;11486;-70
2022/01/08 02:08:52;;;;;;;;;0.75;0.00;;;;;2.99;93.98;100913.00;5067688;28;11415;-69
2022/01/08 02:11:20;;;;;;;;;1.00;0.00;;;;;2.94;93.84;100910.72;5080022;28;11397;-72
2022/01/08 02:13:50;;;;;;;;;0.00;0.00;;;;;2.94;93.78;100912.53;5074121;28;11399;-70
2022/01/08 02:16:17;;;;;;;;;1.50;0.50;;;;;2.97;94.09;100917.59;5077028;28;11496;-72
2022/01/08 02:18:50;;;;;;;;;0.75;0.75;;;;;2.93;93.78;100925.06;5076882;28;11413;-70
2022/01/08 02:21:16;;;;;;;;;4.00;1.00;;;;;2.92;92.94;100919.84;5060784;28;11562;-70
2022/01/08 02:23:43;;;;;;;;;0.50;0.50;;;;;2.92;92.35;100936.75;5071276;28;11395;-71
2022/01/08 02:26:11;;;;;;;;;1.00;1.00;;;;;2.93;91.58;100929.56;5074785;28;12118;-71
2022/01/08 02:28:39;;;;;;;;;1.00;1.00;;;;;2.93;91.53;100937.59;5074704;28;12339;-73
2022/01/08 02:31:05;;;;;;;;;1.75;0.00;;;;;2.99;92.26;100929.88;5074849;28;11403;-70
2022/01/08 02:33:33;;;;;;;;;0.00;0.00;;;;;3.04;91.99;100937.50;5076963;28;11505;-69
2022/01/08 02:36:05;;;;;;;;;0.00;0.00;;;;;3.02;91.91;100929.59;5075179;28;11517;-69
2022/01/08 02:38:33;;;;;;;;;1.00;1.00;;;;;3.09;92.57;100924.53;5076636;28;11529;-71
2022/01/08 02:41:03;;;;;;;;;0.75;0.00;;;;;3.09;92.52;100925.38;5075455;28;11911;-72
2022/01/08 02:43:33;;;;;;;;;0.00;0.00;;;;;3.12;92.85;100921.59;5074762;28;11500;-70
2022/01/08 02:46:00;;;;;;;;;1.00;0.00;;;;;3.17;92.83;100916.66;5060036;28;11395;-72
2022/01/08 02:48:26;;;;;;;;;0.50;0.25;;;;;3.20;93.29;100907.50;5061915;28;11535;-70
2022/01/08 02:50:53;;;;;;;;;0.50;0.50;;;;;3.18;93.13;100913.00;5079701;28;11418;-70
2022/01/08 02:53:19;;;;;;;;;2.00;0.00;;;;;3.21;92.43;100904.69;5083551;28;11386;-69
2022/01/08 02:55:51;;;;;;;;;0.00;0.00;;;;;3.23;nan;100908.09;5076080;28;11175;-70
2022/01/08 02:58:18;;;;;;;;;0.00;0.00;;;;;3.22;92.25;100903.72;5077121;28;11446;-69
2022/01/08 03:00:44;;;;;;;;;0.00;0.00;;;;;3.24;92.25;100904.44;5076935;28;11435;-71
2022/01/08 03:03:12;;;;;;;;;0.00;0.00;;;;;3.27;92.53;100901.47;5062101;28;11431;-69
2022/01/08 03:05:39;;;;;;;;;0.00;0.00;;;;;3.25;92.69;100906.13;5093377;28;11313;-70
2022/01/08 03:08:05;;;;;;;;;1.75;0.00;;;;;3.26;92.87;100907.81;5078823;28;11194;-70
2022/01/08 03:10:32;;;;;;;;;0.00;0.00;;;;;3.28;92.99;100910.34;5075544;28;12163;-70
2022/01/08 03:12:58;;;;;;;;;0.00;0.00;;;;;3.27;92.87;100922.88;5078950;28;11265;-69
2022/01/08 03:15:25;;;;;;;;;0.00;0.00;;;;;3.13;92.30;100925.09;5080037;28;11546;-70
2022/01/08 03:17:51;;;;;;;;;0.00;0.00;;;;;3.11;92.22;100921.72;5061246;28;11563;-70
2022/01/08 03:20:18;;;;;;;;;3.25;0.00;;;;;3.09;92.40;100916.50;5061489;28;12185;-70
2022/01/08 03:22:46;;;;;;;;;0.50;0.50;;;;;3.12;92.21;100912.72;5077956;28;11485;-71
2022/01/08 03:25:14;;;;;;;;;0.25;0.25;;;;;3.07;91.67;100915.81;5073403;28;11495;-69
2022/01/08 03:27:41;;;;;;;;;0.00;0.00;;;;;3.11;92.10;100921.72;5080791;28;11423;-72
2022/01/08 03:30:10;;;;;;;;;1.00;0.00;;;;;3.11;91.86;100917.22;5079408;28;11551;-70
2022/01/08 03:32:36;;;;;;;;;0.00;0.00;;;;;3.17;91.58;100910.47;5076785;28;11294;-70
2022/01/08 03:35:04;;;;;;;;;0.00;0.00;;;;;3.16;91.67;100901.59;5077501;28;11411;-70
2022/01/08 03:37:30;;;;;;;;;0.00;0.00;;;;;3.16;91.52;100906.94;5077925;28;11447;-70
2022/01/08 03:39:57;;;;;;;;;1.00;0.00;;;;;3.21;91.47;100904.69;5077389;28;11513;-70
2022/01/08 03:42:23;;;;;;;;;0.00;0.00;;;;;3.27;92.20;100898.81;5080281;28;11166;-70
2022/01/08 03:44:49;;;;;;;;;0.00;0.00;;;;;3.22;91.73;100897.50;5079061;28;11221;-70
2022/01/08 03:49:57;;;;;;;;;0.75;0.00;;;;;3.28;92.21;100907.66;5080167;28;11494;-70
2022/01/08 03:52:24;;;;;;;;;0.00;0.00;;;;;3.28;92.35;100915.69;5078665;28;11515;-70
2022/01/08 03:54:50;;;;;;;;;0.00;0.00;;;;;3.25;92.26;100924.84;5076169;28;11180;-70
2022/01/08 03:57:17;;;;;;;;;0.00;0.00;;;;;3.31;92.05;100926.13;5077730;28;11580;-69
2022/01/08 03:59:43;;;;;;;;;0.00;0.00;;;;;3.23;90.80;100931.34;5076254;28;11501;-70
2022/01/08 04:02:10;;;;;;;;;0.00;0.00;;;;;3.23;90.87;100934.84;5077685;28;11174;-71
2022/01/08 04:04:36;;;;;;;;;0.00;0.00;;;;;3.27;91.39;100936.25;5077211;28;11210;-70
2022/01/08 04:07:03;;;;;;;;;0.00;0.00;;;;;3.28;91.55;100939.78;5095282;28;11167;-70
2022/01/08 04:09:30;;;;;;;;;0.00;0.00;;;;;3.35;91.58;100933.72;5073660;28;11396;-71
2022/01/08 04:11:57;;;;;;;;;1.00;1.00;;;;;3.32;91.82;100925.97;5079018;28;11399;-70
2022/01/08 04:14:26;;;;;;;;;0.00;0.00;;;;;3.31;91.72;100920.75;5077696;28;11424;-70
2022/01/08 04:16:53;;;;;;;;;0.00;0.00;;;;;3.35;91.78;100923.00;5077413;28;11418;-69
2022/01/08 04:19:20;;;;;;;;;0.50;0.50;;;;;3.27;91.76;100914.00;5076712;28;11499;-70
2022/01/08 04:22:11;;;;;;;;;0.00;0.00;;;;;3.24;91.77;100923.16;5076960;28;11534;-69
2022/01/08 04:24:38;;;;;;;;;0.00;0.00;;;;;3.25;91.88;100930.19;5072676;28;11467;-70
2022/01/08 04:27:05;;;;;;;;;0.00;0.00;;;;;3.29;91.86;100922.75;5077147;28;11419;-74
2022/01/08 04:29:32;;;;;;;;;0.00;0.00;;;;;3.26;91.53;100921.19;5074863;28;11173;-70
2022/01/08 04:31:58;;;;;;;;;0.00;0.00;;;;;3.22;91.88;100921.59;5077508;28;11861;-70
2022/01/08 04:34:26;;;;;;;;;0.00;0.00;;;;;3.21;92.06;100928.75;5082784;28;11501;-73
2022/01/08 04:36:53;;;;;;;;;0.00;0.00;;;;;3.15;92.04;100925.81;5082062;28;11084;-70
2022/01/08 04:39:19;;;;;;;;;0.00;0.00;;;;;3.14;91.77;100932.16;5078582;28;11422;-70
2022/01/08 04:41:46;;;;;;;;;0.00;0.00;;;;;3.12;92.27;100934.97;5078961;28;11568;-70
2022/01/08 04:44:12;;;;;;;;;0.00;0.00;;;;;3.06;91.89;100938.19;5075680;28;11407;-72
2022/01/08 04:46:41;;;;;;;;;1.00;1.00;;;;;3.02;91.84;100934.97;5066995;28;11453;-69
2022/01/08 04:49:08;;;;;;;;;0.00;0.00;;;;;2.96;92.08;100932.81;5078376;28;11402;-71
2022/01/08 04:51:34;;;;;;;;;0.00;0.00;;;;;2.91;92.26;100934.22;5076203;28;12264;-70
2022/01/08 04:54:01;;;;;;;;;0.00;0.00;;;;;2.92;92.60;100935.91;5078752;28;11484;-69
2022/01/08 04:56:27;;;;;;;;;0.00;0.00;;;;;2.84;92.60;100939.28;5060017;28;11539;-69
2022/01/08 04:58:54;;;;;;;;;1.00;1.00;;;;;2.78;92.69;100934.47;5072870;28;11512;-71
2022/01/08 05:01:21;;;;;;;;;0.00;0.00;;;;;2.79;92.98;100936.16;5078634;28;11418;-69
2022/01/08 05:03:47;;;;;;;;;0.00;0.00;;;;;2.76;93.17;100939.97;5077826;28;11407;-69
2022/01/08 05:06:14;;;;;;;;;0.00;0.00;;;;;2.72;93.01;100932.31;5077774;28;12162;-70
2022/01/08 05:08:40;;;;;;;;;0.00;0.00;;;;;2.67;92.59;100938.09;5073735;28;11505;-70
2022/01/08 05:11:07;;;;;;;;;0.00;0.00;;;;;2.67;92.73;100938.09;5059016;28;11505;-70
2022/01/08 05:13:33;;;;;;;;;1.00;1.00;;;;;2.68;92.96;100942.44;5072140;28;11432;-70
2022/01/08 05:16:00;;;;;;;;;1.00;1.00;;;;;2.66;92.76;100949.75;5052117;28;11450;-69
2022/01/08 05:18:29;;;;;;;;;0.25;0.25;;;;;2.65;92.68;100948.06;5077624;28;11557;-70
2022/01/08 05:21:08;;;;;;;;;1.00;1.00;;;;;2.63;92.76;100946.50;5079289;28;11453;-69
2022/01/08 05:23:35;;;;;;;;;1.25;1.25;;;;;2.62;92.68;100958.19;5078058;28;11477;-70
2022/01/08 05:26:01;;;;;;;;;0.00;0.00;;;;;2.58;92.19;100951.44;5078029;28;11566;-69
2022/01/08 05:28:28;;;;;;;;;0.00;0.00;;;;;2.54;92.16;100939.31;5072975;28;11390;-69
2022/01/08 05:30:54;;;;;;;;;0.00;0.00;;;;;2.55;92.33;100931.16;5075494;28;11569;-70
2022/01/08 05:33:21;;;;;;;;;0.00;0.00;;;;;2.53;92.68;100941.16;5082917;28;11435;-71
2022/01/08 05:35:47;;;;;;;;;1.75;0.00;;;;;2.53;92.30;100948.31;5076896;28;11518;-70
2022/01/08 05:38:13;;;;;;;;;0.00;0.00;;;;;2.55;92.13;100947.19;5056784;28;11410;-71
2022/01/08 05:40:40;;;;;;;;;1.00;0.00;;;;;2.40;91.29;100953.88;5059792;28;11414;-70
2022/01/08 05:43:06;;;;;;;;;0.75;0.00;;;;;2.47;91.29;100955.03;5076649;28;11406;-70
2022/01/08 05:45:33;;;;;;;;;0.00;0.00;;;;;2.45;91.09;100955.16;5058610;28;11482;-69
2022/01/08 05:47:59;;;;;;;;;0.00;0.00;;;;;2.44;91.31;100965.97;5077532;28;11435;-70
2022/01/08 05:50:26;;;;;;;;;0.50;0.50;;;;;2.40;91.29;100968.06;5073950;28;11525;-70
2022/01/08 05:52:52;;;;;;;;;0.00;0.00;;;;;2.42;91.22;100963.44;5071331;28;11427;-70
2022/01/08 05:55:19;;;;;;;;;0.25;0.00;;;;;2.45;91.63;100965.00;5076627;28;11555;-70
2022/01/08 05:57:45;;;;;;;;;0.50;0.25;;;;;2.44;91.12;100968.66;5059483;28;12226;-71
2022/01/08 06:00:12;;;;;;;;;0.00;0.00;;;;;2.39;91.04;100966.38;5076080;28;11494;-70
2022/01/08 06:02:38;;;;;;;;;1.00;1.00;;;;;2.43;91.01;100969.63;5077211;28;11494;-69
2022/01/08 06:05:06;;;;;;;;;0.25;0.25;;;;;2.36;90.74;100963.97;5076934;28;11408;-70
2022/01/08 06:07:33;;;;;;;;;0.00;0.00;;;;;2.41;90.88;100967.09;5075587;28;11407;-69
2022/01/08 06:10:00;;;;;;;;;0.00;0.00;;;;;2.43;91.35;100961.63;5075673;28;11541;-72
2022/01/08 06:12:26;;;;;;;;;0.00;0.00;;;;;2.40;91.22;100962.72;5085136;28;11398;-70
2022/01/08 06:14:53;;;;;;;;;2.00;1.00;;;;;2.41;90.97;100963.56;5059722;28;11400;-70
2022/01/08 06:17:19;;;;;;;;;0.25;0.25;;;;;2.43;90.83;100964.28;5072951;28;11432;-70
2022/01/08 06:19:46;;;;;;;;;1.50;1.50;;;;;2.44;90.72;100963.31;5077073;28;11614;-71
2022/01/08 06:22:12;;;;;;;;;2.00;1.00;;;;;2.46;90.86;100964.00;5077188;28;11532;-69
2022/01/08 06:24:39;;;;;;;;;1.00;1.00;;;;;2.43;91.13;100965.13;5061592;28;11586;-70
2022/01/08 06:27:06;;;;;;;;;0.25;0.25;;;;;2.46;91.41;100950.66;5081021;28;11387;-70
2022/01/08 06:29:37;;;;;;;;;0.00;0.00;;;;;2.46;91.23;100961.34;5081025;28;11407;-69
2022/01/08 06:32:04;;;;;;;;;0.00;0.00;;;;;2.46;90.75;100954.19;5079055;28;11493;-68
2022/01/08 06:34:30;;;;;;;;;1.25;1.00;;;;;2.49;91.00;100950.41;5081065;28;11412;-69
2022/01/08 06:36:57;;;;;;;;;1.00;1.00;;;;;2.46;90.63;100943.50;5088932;28;11441;-69
2022/01/08 06:39:23;;;;;;;;;0.50;0.50;;;;;2.42;90.53;100941.22;5081092;28;11402;-69
2022/01/08 06:41:49;;;;;;;;;0.00;0.00;;;;;2.46;90.58;100946.16;5079028;28;11438;-69
2022/01/08 06:44:16;;;;;;;;;0.00;0.00;;;;;2.52;90.53;100939.47;5076347;28;11387;-68
2022/01/08 06:46:42;;;;;;;;;0.75;0.75;;;;;2.46;90.58;100934.63;5081605;28;11577;-68
2022/01/08 06:49:09;;;;;;;;;1.50;0.50;;;;;2.43;90.52;100937.56;5079270;28;11415;-71
2022/01/08 06:51:35;;;;;;;;;0.00;0.00;;;;;2.47;90.88;100931.81;5088178;28;11415;-69
2022/01/08 06:54:02;;;;;;;;;0.00;0.00;;;;;2.38;90.77;100935.31;5080361;28;11432;-68
2022/01/08 06:56:29;;;;;;;;;1.00;1.00;;;;;2.45;91.10;100938.28;5082480;28;11535;-69
2022/01/08 06:58:55;;;;;;;;;2.25;0.00;;;;;2.46;90.76;100935.47;5075660;28;11423;-70
2022/01/08 07:01:22;;;;;;;;;0.75;0.75;;;;;2.47;90.74;100930.97;5079607;28;11406;-69
2022/01/08 07:03:48;;;;;;;;;1.75;0.00;;;;;2.45;90.71;100932.94;5079352;28;11434;-69
2022/01/08 07:06:15;;;;;;;;;0.00;0.00;;;;;2.43;90.44;100940.25;5078573;28;11492;-69
2022/01/08 07:08:41;;;;;;;;;0.00;0.00;;;;;2.42;90.61;100927.88;5079186;28;11485;-70
2022/01/08 07:11:09;;;;;;;;;0.00;0.00;;;;;2.41;90.37;100928.84;5075643;28;11513;-70
2022/01/08 07:13:36;;;;;;;;;0.50;0.00;;;;;2.42;90.04;100931.38;5079714;28;11407;-71
2022/01/08 07:16:02;;;;;;;;;3.00;0.50;;;;;2.45;89.95;100924.91;5077064;28;11595;-69
2022/01/08 07:18:29;;;;;;;;;1.00;1.00;;;;;2.49;90.02;100922.84;5079133;28;11519;-69
2022/01/08 07:20:55;;;;;;;;;2.00;0.00;;;;;2.53;90.19;100916.25;5080916;28;11438;-69
2022/01/08 07:23:22;;;;;;;;;1.00;1.00;;;;;2.52;89.77;100923.41;5080657;28;11461;-71
2022/01/08 07:25:49;;;;;;;;;6.00;1.00;;;;;2.53;89.73;100917.09;5074158;28;12147;-69
2022/01/08 07:28:15;;;;;;;;;1.50;0.75;;;;;2.53;89.54;100922.44;5079967;28;11418;-70
2022/01/08 07:30:42;;;;;;;;;2.00;1.00;;;;;2.60;89.58;100912.91;5078475;28;11559;-70
2022/01/08 07:33:08;;;;;;;;;3.50;1.00;;;;;2.59;89.08;100911.19;5078100;28;11420;-69
2022/01/08 07:35:35;;;;;;;;;3.00;1.00;;;;;2.59;89.29;100919.22;5078656;28;11397;-70
2022/01/08 07:38:02;;;;;;;;;0.00;0.00;;;;;2.64;89.13;100919.66;5062329;28;12120;-70
2022/01/08 07:40:28;;;;;;;;;0.50;0.50;;;;;2.66;89.27;100911.50;5077070;28;11474;-69
2022/01/08 07:42:55;;;;;;;;;1.75;0.75;;;;;2.65;88.71;100913.31;5078561;28;11435;-71
2022/01/08 07:45:22;;;;;;;;;1.25;1.25;;;;;2.68;88.51;100917.53;5075433;28;11402;-72
2022/01/08 07:47:48;;;;;;;;;1.00;1.00;;;;;2.75;88.77;100916.03;5061153;28;11418;-73
2022/01/08 07:50:15;;;;;;;;;2.25;2.25;;;;;2.71;88.28;100922.63;5076556;28;11396;-73
2022/01/08 07:52:43;;;;;;;;;4.00;4.00;;;;;2.69;88.51;100912.06;5074965;28;11506;-73
2022/01/08 07:55:10;;;;;;;;;2.00;2.00;;;;;2.72;88.20;100913.63;5073101;28;11507;-72
2022/01/08 07:57:37;;;;;;;;;1.50;0.00;;;;;2.77;88.29;100909.56;5075466;28;11424;-70
2022/01/08 08:00:05;;;;;;;;;0.25;0.25;;;;;2.85;88.60;100902.69;5076887;28;11427;-73
2022/01/08 08:02:37;;;;;;;;;2.00;2.00;;;;;2.88;88.40;100891.72;5077447;28;11534;-71
2022/01/08 08:05:04;;;;;;;;;2.00;2.00;;;;;2.88;88.15;100892.56;5079305;28;11386;-73
2022/01/08 08:07:39;;;;;;;;;1.25;1.25;;;;;2.87;88.11;100888.19;5077706;28;11547;-73
2022/01/08 08:10:13;;;;;;;;;2.00;2.00;;;;;2.87;88.07;100892.69;5079250;28;11557;-72
2022/01/08 08:12:41;;;;;;;;;8.00;5.50;;;;;2.87;88.30;100885.53;5080680;28;11562;-72
2022/01/08 08:15:09;;;;;;;;;5.25;5.25;;;;;2.88;87.89;100876.50;5078564;28;11475;-72
2022/01/08 08:17:36;;;;;;;;;1.00;1.00;;;;;2.90;88.59;100874.53;5081837;28;11442;-73
2022/01/08 08:20:03;;;;;;;;;3.50;3.00;;;;;2.93;88.38;100876.09;5078947;28;12197;-72
2022/01/08 08:22:30;;;;;;;;;5.00;5.00;;;;;2.95;88.39;100874.13;5063731;28;11424;-72
2022/01/08 08:24:56;;;;;;;;;9.50;5.25;;;;;2.94;88.04;100872.44;5079293;28;11455;-73
2022/01/08 08:27:23;;;;;;;;;2.75;1.50;;;;;2.90;88.51;100861.19;5077575;28;11417;-73
2022/01/08 08:29:49;;;;;;;;;4.00;4.00;;;;;2.88;88.57;100848.94;5062948;28;11512;-73
2022/01/08 08:32:16;;;;;;;;;3.75;3.00;;;;;2.86;88.85;100848.22;5075620;28;11533;-71
2022/01/08 08:34:43;;;;;;;;;3.75;2.00;;;;;2.89;89.39;100850.63;5054108;28;11479;-73
2022/01/08 08:37:10;;;;;;;;;1.25;1.25;;;;;2.83;89.46;100854.69;5086043;28;11453;-73
2022/01/08 08:39:36;;;;;;;;;2.50;2.00;;;;;2.86;89.56;100848.22;5081017;28;11468;-71
2022/01/08 08:42:03;;;;;;;;;1.00;1.00;;;;;2.84;89.64;100840.34;5081419;28;11565;-72
2022/01/08 08:44:29;;;;;;;;;1.50;1.50;;;;;2.80;89.97;100838.09;5047258;28;11410;-71
2022/01/08 08:46:55;;;;;;;;;5.50;1.25;;;;;2.84;90.25;100836.84;5077748;28;11450;-72
2022/01/08 08:49:22;;;;;;;;;5.75;3.50;;;;;2.85;90.17;100835.84;5062565;28;11479;-73
2022/01/08 08:51:49;;;;;;;;;1.50;1.50;;;;;2.83;90.77;100836.00;5061307;28;11551;-73
2022/01/08 08:54:15;;;;;;;;;3.50;1.00;;;;;2.87;90.96;100847.25;5099477;28;11523;-74
2022/01/08 08:56:42;;;;;;;;;1.25;1.25;;;;;2.86;91.37;100841.06;5057806;28;11440;-73
2022/01/08 08:59:10;;;;;;;;;3.50;3.50;;;;;2.77;91.07;100841.91;5086939;28;11436;-73
2022/01/08 09:01:37;;;;;;;;;5.00;5.00;;;;;2.81;91.45;100834.44;5064387;28;11429;-72
2022/01/08 09:04:04;;;;;;;;;4.00;4.00;;;;;2.76;91.38;100827.69;5064367;28;11439;-72
2022/01/08 09:06:32;;;;;;;;;7.00;4.00;;;;;2.77;91.77;100821.34;5061253;28;11424;-73
2022/01/08 09:08:59;;;;;;;;;8.50;4.00;;;;;2.77;91.85;100820.50;5060741;28;11425;-73
2022/01/08 09:11:26;;;;;;;;;6.00;5.00;;;;;2.75;92.42;100820.66;5063923;28;12192;-73
2022/01/08 09:13:53;;;;;;;;;7.00;7.00;;;;;2.71;92.25;100811.19;5068833;28;11423;-73
2022/01/08 09:16:20;;;;;;;;;7.00;7.00;;;;;2.69;92.55;100804.31;5057433;28;11464;-72
2022/01/08 09:18:46;;;;;;;;;7.75;6.00;;;;;2.68;92.81;100807.97;5060541;28;11513;-72
2022/01/08 09:21:13;;;;;;;;;10.50;10.50;;;;;2.94;93.67;100797.56;5058873;28;12132;-72
2022/01/08 09:23:40;;;;;;;;;7.75;6.75;;;;;2.83;93.10;100793.22;5056730;28;11428;-74
2022/01/08 09:26:07;;;;;;;;;9.25;9.25;;;;;2.83;93.30;100792.38;5063564;28;11570;-72
2022/01/08 09:28:33;;;;;;;;;9.25;8.50;;;;;2.80;93.48;100785.47;5059272;28;11421;-71
2022/01/08 09:31:01;;;;;;;;;12.00;9.00;;;;;2.82;93.45;100774.66;5061304;28;11509;-73
2022/01/08 09:33:28;;;;;;;;;12.00;11.00;;;;;2.84;93.53;100770.00;5063250;28;11482;-69
2022/01/08 09:35:54;;;;;;;;;14.25;9.50;;;;;3.09;95.17;100772.09;5057214;28;11587;-73
2022/01/08 09:38:22;;;;;;;;;7.00;7.00;;;;;2.94;94.11;100774.34;5075367;28;12251;-72
2022/01/08 09:40:50;;;;;;;;;13.25;12.25;;;;;2.90;93.63;100769.44;5073103;28;11468;-71
2022/01/08 09:43:17;;;;;;;;;14.00;12.00;;;;;3.07;94.56;100768.72;5075097;28;11533;-72
2022/01/08 09:45:44;;;;;;;;;16.50;12.75;;;;;2.93;93.54;100756.63;5076079;28;11472;-71
2022/01/08 09:48:11;;;;;;;;;13.25;10.50;;;;;2.92;93.64;100765.63;5075405;28;12442;-73
2022/01/08 09:50:41;;;;;;;;;11.00;9.75;;;;;2.91;93.62;100752.41;5078112;28;11478;-73
2022/01/08 09:53:08;;;;;;;;;16.00;13.00;;;;;2.84;93.84;100751.28;5079439;28;11493;-73
2022/01/08 09:55:35;;;;;;;;;15.75;13.00;;;;;2.82;94.13;100747.91;5057051;28;13518;-72
2022/01/08 09:58:02;;;;;;;;;21.00;19.50;;;;;2.88;94.37;100737.47;5071047;28;11442;-73
2022/01/08 10:00:32;;;;;;;;;20.25;18.25;;;;;2.85;94.20;100726.25;5070631;28;11502;-72
2022/01/08 10:03:16;;;;;;;;;17.25;16.00;;;;;2.92;94.61;100720.16;5075074;28;12303;-72
2022/01/08 10:05:54;;;;;;;;;23.50;18.00;;;;;2.96;94.64;100705.53;5059522;28;11647;-72
2022/01/08 10:08:41;;;;;;;;;23.25;23.25;;;;;2.92;94.15;100704.13;5061056;28;11680;-72
2022/01/08 10:11:08;;;;;;;;;17.25;15.50;;;;;2.96;94.67;100692.16;5089664;28;11583;-72
2022/01/08 10:13:39;;;;;;;;;19.00;19.00;;;;;3.02;94.81;100685.41;5057924;28;11572;-73
2022/01/08 10:18:56;;;;;;;;;16.00;13.50;;;;;3.10;94.28;100669.47;5075029;28;11591;-73
2022/01/08 10:21:25;;;;;;;;;21.00;18.75;;;;;3.16;93.70;100652.84;5082558;28;11581;-72
2022/01/08 10:23:55;;;;;;;;;16.75;16.75;;;;;3.15;93.67;100659.19;5058065;28;11663;-73
2022/01/08 10:26:31;;;;;;;;;20.75;18.50;;;;;3.17;93.88;100665.22;5073899;28;11498;-73
2022/01/08 10:29:00;;;;;;;;;20.50;17.25;;;;;3.17;93.49;100664.38;5074341;28;11502;-71
2022/01/08 10:31:39;;;;;;;;;16.00;16.00;;;;;3.20;93.44;100659.56;5077026;28;11571;-74
2022/01/08 10:34:18;;;;;;;;;18.00;17.25;;;;;3.22;93.33;100659.44;5066472;28;11549;-71
2022/01/08 10:36:59;;;;;;;;;21.00;17.50;;;;;3.21;92.97;100645.22;5076206;28;11557;-73
2022/01/08 10:39:29;;;;;;;;;29.00;22.75;;;;;3.24;93.16;100644.09;5074693;28;11601;-72
2022/01/08 10:41:58;;;;;;;;;19.00;17.75;;;;;3.25;93.05;100635.09;5074081;28;11549;-73
2022/01/08 10:44:27;;;;;;;;;17.50;16.75;;;;;3.30;93.27;100630.97;5072469;28;11518;-73
2022/01/08 10:47:05;;;;;;;;;19.50;16.75;;;;;3.31;93.38;100623.78;5078264;28;11573;-70
2022/01/08 10:49:42;;;;;;;;;20.00;19.25;;;;;3.31;93.16;100626.47;5075508;28;11504;-73
2022/01/08 10:52:12;;;;;;;;;20.50;20.25;;;;;3.30;93.01;100606.91;5073418;28;12619;-72
2022/01/08 10:54:48;;;;;;;;;21.25;20.25;;;;;3.33;92.55;100609.28;5087464;28;11700;-72
2022/01/08 10:57:14;;;;;;;;;25.50;21.00;;;;;3.34;92.65;100599.41;5073567;28;11556;-72
2022/01/08 10:59:42;;;;;;;;;18.00;17.25;;;;;3.43;93.00;100598.50;5073784;28;11677;-74
2022/01/08 11:02:14;;;;;;;;;17.50;17.00;;;;;3.43;92.27;100593.16;5057533;28;11510;-69
2022/01/08 11:04:47;;;;;;;;;18.25;16.00;;;;;3.43;91.98;100585.13;5070676;28;11534;-72
2022/01/08 11:07:22;;;;;;;;;21.50;19.00;;;;;3.48;92.16;100584.72;5057945;28;11591;-71
2022/01/08 11:09:53;;;;;;;;;19.50;18.00;;;;;3.53;91.83;100579.75;5076387;28;11541;-73
2022/01/08 11:12:29;;;;;;;;;20.25;18.50;;;;;3.55;91.73;100564.38;5077853;28;12314;-73
2022/01/08 11:15:23;;;;;;;;;27.75;24.25;;;;;3.53;91.04;100561.84;5075535;28;11527;-72
2022/01/08 11:17:54;;;;;;;;;23.00;20.25;;;;;3.55;91.19;100557.19;5063006;28;11572;-72
2022/01/08 11:20:44;;;;;;;;;21.50;17.75;;;;;3.54;90.82;100538.59;5063370;28;11528;-72
2022/01/08 11:23:12;;;;;;;;;23.25;19.75;;;;;3.58;91.20;100534.63;5061815;28;11523;-72
2022/01/08 11:25:39;;;;;;;;;27.25;23.00;;;;;3.59;91.17;100523.75;5062228;28;11544;-71
2022/01/08 11:28:14;;;;;;;;;17.50;16.00;;;;;3.60;91.46;100517.41;5065591;28;11586;-74
2022/01/08 11:30:45;;;;;;;;;15.50;13.25;;;;;3.58;91.07;100511.38;5064405;28;11474;-74
2022/01/08 11:33:21;;;;;;;;;21.00;17.75;;;;;3.53;91.26;100499.44;5061090;28;11484;-73
2022/01/08 11:35:50;;;;;;;;;18.25;18.25;;;;;3.55;90.92;100495.63;5075675;28;11590;-73
2022/01/08 11:38:19;;;;;;;;;20.00;17.75;;;;;3.54;91.13;100482.41;5066656;28;11600;-71
2022/01/08 11:40:48;;;;;;;;;26.50;23.25;;;;;3.48;91.01;100475.84;5064897;28;12413;-74
2022/01/08 11:43:18;;;;;;;;;20.50;17.00;;;;;3.51;91.14;100470.16;5060052;28;11715;-73
2022/01/08 11:45:53;;;;;;;;;33.75;27.00;;;;;3.46;90.88;100458.22;5057410;28;11524;-73
2022/01/08 11:48:25;;;;;;;;;32.00;25.25;;;;;3.45;90.92;100453.84;5065986;28;11582;-69
2022/01/08 11:50:54;;;;;;;;;31.00;26.25;;;;;3.38;90.36;100430.41;5060401;28;11586;-73
2022/01/08 11:53:24;;;;;;;;;22.75;16.50;;;;;3.43;90.39;100424.59;5063687;28;11546;-71
2022/01/08 11:56:20;;;;;;;;;22.50;21.25;;;;;3.43;90.35;100418.38;5074880;28;11668;-72
2022/01/08 11:59:02;;;;;;;;;27.75;23.00;;;;;3.42;90.55;100406.84;5068412;28;11558;-74